createdAt,value
2022-10-25T00:01:25.742Z,85.82
2022-10-25T00:11:32.087Z,86.00
2022-10-25T00:21:36.008Z,86.27
2022-10-25T00:31:40.127Z,86.42
2022-10-25T00:41:43.680Z,86.62
2022-10-25T00:51:51.197Z,86.46
2022-10-25T01:12:00.087Z,86.42
2022-10-25T01:22:06.874Z,86.56
2022-10-25T01:32:15.213Z,86.80
2022-10-25T01:42:27.063Z,86.68
2022-10-25T01:52:30.983Z,86.95
2022-10-25T02:02:49.896Z,86.97
2022-10-25T02:12:55.891Z,87.03
2022-10-25T02:23:03.063Z,87.21
2022-10-25T02:33:07.674Z,87.35
2022-10-25T02:43:11.104Z,87.45
2022-10-25T02:53:14.681Z,87.24
2022-10-25T03:03:18.257Z,87.47
2022-10-25T03:13:22.807Z,87.79
2022-10-25T03:23:27.097Z,87.93
2022-10-25T03:43:33.923Z,88.03
2022-10-25T03:53:37.705Z,88.12
2022-10-25T04:03:41.160Z,88.03
2022-10-25T04:13:44.636Z,87.79
2022-10-25T04:23:49.166Z,87.84
2022-10-25T04:33:53.857Z,87.83
2022-10-25T04:43:57.526Z,88.04
2022-10-25T04:54:00.985Z,88.14
2022-10-25T05:04:05.005Z,88.08
2022-10-25T05:14:08.620Z,88.16
2022-10-25T05:24:12.253Z,88.25
2022-10-25T05:34:15.695Z,88.09
2022-10-25T05:44:19.735Z,88.25
2022-10-25T05:54:24.367Z,88.28
2022-10-25T06:04:28.182Z,88.45
2022-10-25T06:14:31.635Z,88.53
2022-10-25T06:24:35.060Z,88.26
2022-10-25T06:34:38.825Z,88.35
2022-10-25T06:44:42.480Z,88.42
2022-10-25T06:54:46.042Z,88.11
2022-10-25T07:04:49.596Z,88.60
2022-10-25T07:14:53.143Z,87.96
2022-10-25T07:24:56.779Z,87.88
2022-10-25T07:35:00.676Z,87.50
2022-10-25T07:45:05.666Z,87.51
2022-10-25T07:55:09.054Z,87.63
2022-10-25T08:05:12.816Z,87.65
2022-10-25T08:15:17.693Z,87.66
2022-10-25T08:25:22.533Z,87.74
2022-10-25T08:35:28.736Z,87.63
2022-10-25T08:45:33.350Z,87.87
2022-10-25T08:55:48.574Z,87.75
2022-10-25T09:06:05.848Z,87.46
2022-10-25T09:16:10.417Z,88.05
2022-10-25T09:26:21.075Z,87.29
2022-10-25T09:36:25.629Z,87.13
2022-10-25T09:46:35.641Z,86.18
2022-10-25T09:56:40.112Z,85.26
2022-10-25T10:06:44.609Z,85.28
2022-10-25T10:16:50.882Z,85.19
2022-10-25T10:26:57.921Z,85.01
2022-10-25T10:37:20.970Z,84.45
2022-10-25T10:47:29.465Z,84.18
2022-10-25T10:57:35.478Z,84.20
2022-10-25T11:07:42.903Z,83.93
2022-10-25T11:17:45.573Z,83.08
2022-10-25T11:27:59.210Z,82.42
2022-10-25T11:38:12.370Z,81.43
2022-10-25T11:48:24.451Z,80.22
2022-10-25T11:58:33.408Z,80.16
2022-10-25T12:08:42.449Z,80.44
2022-10-25T12:18:47.014Z,80.64
2022-10-25T12:28:52.317Z,80.80
2022-10-25T12:38:58.962Z,80.54
2022-10-25T12:49:28.295Z,80.70
2022-10-25T12:59:35.752Z,80.10
2022-10-25T13:09:40.702Z,79.17
2022-10-25T13:19:54.866Z,79.22
2022-10-25T13:30:02.957Z,78.79
2022-10-25T13:40:13.502Z,78.68
2022-10-25T13:50:21.525Z,79.16
2022-10-25T14:00:34.280Z,79.77
2022-10-25T14:10:37.923Z,80.25
2022-10-25T14:20:44.762Z,80.53
2022-10-25T14:30:49.514Z,80.64
2022-10-25T14:40:52.673Z,80.13
2022-10-25T14:50:57.965Z,79.72
2022-10-25T15:01:03.564Z,79.50
2022-10-25T15:11:13.900Z,79.60
2022-10-25T15:21:18.993Z,79.90
2022-10-25T15:31:24.526Z,80.21
2022-10-25T15:41:28.800Z,80.45
2022-10-25T15:51:31.509Z,80.56
2022-10-25T16:01:35.375Z,80.89
2022-10-25T16:11:44.864Z,81.33
2022-10-25T16:21:50.856Z,81.44
2022-10-25T16:31:54.666Z,81.72
2022-10-25T16:41:58.714Z,81.87
2022-10-25T16:52:02.231Z,82.00
2022-10-25T17:02:07.496Z,82.02
2022-10-25T17:12:12.550Z,82.05
2022-10-25T17:22:16.093Z,82.25
2022-10-25T17:32:20.235Z,82.28
2022-10-25T17:42:23.830Z,82.26
2022-10-25T17:52:26.956Z,82.11
2022-10-25T18:02:31.265Z,82.20
2022-10-25T18:12:34.925Z,82.34
2022-10-25T18:22:38.518Z,82.22
2022-10-25T18:32:42.346Z,82.43
2022-10-25T18:42:45.920Z,82.65
2022-10-25T18:52:49.092Z,82.70
2022-10-25T19:02:53.549Z,82.72
2022-10-25T19:12:57.025Z,82.94
2022-10-25T19:23:00.518Z,83.05
2022-10-25T19:33:03.645Z,83.18
2022-10-25T19:43:06.770Z,83.33
2022-10-25T19:53:10.289Z,83.61
2022-10-25T20:03:14.116Z,83.75
2022-10-25T20:13:18.110Z,83.77
2022-10-25T20:23:21.923Z,83.79
2022-10-25T20:33:25.645Z,83.74
2022-10-25T20:43:29.249Z,83.83
2022-10-25T20:53:33.553Z,83.95
2022-10-25T21:03:38.042Z,83.96
2022-10-25T21:13:41.857Z,84.28
2022-10-25T21:23:45.800Z,84.67
2022-10-25T21:33:51.310Z,85.00
2022-10-25T21:43:56.744Z,85.08
2022-10-25T21:54:02.424Z,85.10
2022-10-25T22:04:05.347Z,84.99
2022-10-25T22:14:12.040Z,84.96
2022-10-25T22:24:16.161Z,84.81
2022-10-25T22:34:19.873Z,84.93
2022-10-25T22:44:23.618Z,84.78
2022-10-25T22:54:27.375Z,84.86
2022-10-25T23:04:30.873Z,84.88
2022-10-25T23:14:34.554Z,84.80
2022-10-25T23:24:38.070Z,85.02
2022-10-25T23:34:41.244Z,85.04
2022-10-25T23:44:45.244Z,85.12
2022-10-25T23:54:48.788Z,85.35
